createdAt,value
2022-08-05T00:00:18.376Z,8.75
2022-08-05T00:02:50.707Z,7.78
2022-08-05T00:06:01.740Z,7.40
2022-08-05T00:08:34.269Z,7.10
2022-08-05T00:11:00.938Z,7.45
2022-08-05T00:13:39.258Z,7.50
2022-08-05T00:16:12.622Z,7.57
2022-08-05T00:18:42.499Z,7.05
2022-08-05T00:21:14.561Z,8.70
2022-08-05T00:23:46.915Z,7.50
2022-08-05T00:26:22.379Z,7.70
2022-08-05T00:28:50.892Z,8.00
2022-08-05T00:31:54.400Z,7.80
2022-08-05T00:34:56.799Z,8.15
2022-08-05T00:37:11.598Z,7.85
2022-08-05T00:39:44.422Z,8.52
2022-08-05T00:42:40.173Z,7.90
2022-08-05T00:45:13.397Z,7.80
2022-08-05T00:47:56.234Z,7.95
2022-08-05T00:50:25.285Z,7.78
2022-08-05T00:52:55.340Z,7.28
2022-08-05T00:55:42.487Z,7.70
2022-08-05T00:58:12.566Z,8.43
2022-08-05T01:00:40.961Z,7.35
2022-08-05T01:03:22.406Z,7.88
2022-08-05T01:05:51.592Z,8.00
2022-08-05T01:08:30.705Z,7.88
2022-08-05T01:11:22.670Z,7.88
2022-08-05T01:13:59.985Z,8.75
2022-08-05T01:16:48.825Z,8.15
2022-08-05T01:20:02.184Z,7.65
2022-08-05T01:22:24.353Z,8.10
2022-08-05T01:25:10.198Z,8.07
2022-08-05T01:28:02.741Z,8.13
2022-08-05T01:30:35.243Z,8.40
2022-08-05T01:33:09.374Z,7.95
2022-08-05T01:35:52.037Z,8.20
2022-08-05T01:38:27.180Z,8.15
2022-08-05T01:41:01.457Z,10.38
2022-08-05T01:43:30.771Z,7.55
2022-08-05T01:46:07.122Z,8.30
2022-08-05T01:48:49.732Z,8.13
2022-08-05T01:51:19.095Z,8.07
2022-08-05T01:53:57.326Z,8.18
2022-08-05T01:58:10.464Z,8.18
2022-08-05T01:59:27.811Z,8.45
2022-08-05T02:02:00.818Z,8.10
2022-08-05T02:04:33.443Z,8.82
2022-08-05T02:07:00.769Z,8.48
2022-08-05T02:09:31.144Z,8.80
2022-08-05T02:12:02.310Z,7.93
2022-08-05T02:14:34.378Z,8.35
2022-08-05T02:17:17.073Z,8.43
2022-08-05T02:20:04.309Z,8.50
2022-08-05T02:22:39.129Z,8.73
2022-08-05T02:25:18.743Z,9.05
2022-08-05T02:27:59.428Z,8.48
2022-08-05T02:30:34.427Z,8.43
2022-08-05T02:33:03.890Z,8.10
2022-08-05T02:35:38.515Z,8.55
2022-08-05T02:38:19.955Z,8.95
2022-08-05T02:40:47.646Z,8.63
2022-08-05T02:43:16.829Z,8.63
2022-08-05T02:45:51.574Z,9.20
2022-08-05T02:48:21.512Z,8.57
2022-08-05T02:51:02.170Z,8.32
2022-08-05T02:53:39.791Z,8.88
2022-08-05T02:56:16.074Z,8.98
2022-08-05T02:58:51.448Z,8.73
2022-08-05T03:01:29.798Z,8.90
2022-08-05T03:04:11.781Z,8.77
2022-08-05T03:06:56.393Z,8.45
2022-08-05T03:09:37.399Z,8.60
2022-08-05T03:12:06.707Z,8.85
2022-08-05T03:14:35.434Z,9.30
2022-08-05T03:17:13.219Z,8.63
2022-08-05T03:19:41.983Z,10.65
2022-08-05T03:22:16.850Z,8.70
2022-08-05T03:24:50.702Z,9.98
2022-08-05T03:27:20.276Z,9.68
2022-08-05T03:30:07.770Z,10.18
2022-08-05T03:32:35.439Z,9.38
2022-08-05T03:35:04.613Z,12.15
2022-08-05T03:37:45.894Z,9.63
2022-08-05T03:40:15.525Z,9.73
2022-08-05T03:42:52.895Z,9.95
2022-08-05T03:45:22.744Z,9.82
2022-08-05T03:47:51.654Z,9.27
2022-08-05T03:50:25.732Z,9.68
2022-08-05T03:55:54.209Z,9.48
2022-08-05T03:56:18.106Z,9.30
2022-08-05T03:58:59.019Z,11.05
2022-08-05T04:01:29.114Z,8.88
2022-08-05T04:04:10.259Z,9.15
2022-08-05T04:06:38.583Z,9.15
2022-08-05T04:09:20.424Z,9.65
2022-08-05T04:11:54.205Z,8.93
2022-08-05T04:14:30.344Z,9.70
2022-08-05T04:17:00.589Z,9.30
2022-08-05T04:19:29.633Z,9.68
2022-08-05T04:22:05.736Z,9.82
2022-08-05T04:24:44.587Z,9.77
2022-08-05T04:27:33.221Z,10.23
2022-08-05T04:30:09.125Z,9.40
2022-08-05T04:32:37.762Z,9.82
2022-08-05T04:35:07.297Z,11.68
2022-08-05T04:38:02.385Z,9.02
2022-08-05T04:40:38.756Z,11.50
2022-08-05T04:43:16.453Z,9.35
2022-08-05T04:45:48.803Z,10.50
2022-08-05T04:48:27.648Z,11.00
2022-08-05T04:51:03.593Z,10.77
2022-08-05T04:53:39.332Z,10.90
2022-08-05T04:56:33.268Z,10.82
2022-08-05T04:58:55.663Z,13.43
2022-08-05T05:02:05.971Z,10.05
2022-08-05T05:04:10.974Z,8.30
2022-08-05T05:06:44.838Z,8.30
2022-08-05T05:09:17.412Z,9.48
2022-08-05T05:11:55.616Z,12.18
2022-08-05T05:14:27.995Z,11.00
2022-08-05T05:17:00.488Z,8.35
2022-08-05T05:19:36.858Z,10.63
2022-08-05T05:22:24.618Z,8.30
2022-08-05T05:24:58.659Z,12.73
2022-08-05T05:27:41.339Z,9.68
2022-08-05T05:30:30.927Z,9.80
2022-08-05T05:33:08.850Z,9.23
2022-08-05T05:35:45.252Z,9.25
2022-08-05T05:38:14.245Z,10.88
2022-08-05T05:40:49.670Z,10.85
2022-08-05T05:43:27.573Z,13.57
2022-08-05T05:46:12.114Z,9.90
2022-08-05T05:48:44.384Z,9.40
2022-08-05T05:51:15.758Z,10.77
2022-08-05T05:53:54.479Z,10.48
2022-08-05T05:56:32.732Z,9.98
2022-08-05T05:59:07.607Z,11.25
2022-08-05T06:01:38.693Z,9.73
2022-08-05T06:04:12.786Z,9.52
2022-08-05T06:06:43.017Z,16.92
2022-08-05T06:09:17.505Z,13.75
2022-08-05T06:12:02.139Z,13.38
2022-08-05T06:14:34.699Z,10.60
2022-08-05T06:17:22.573Z,10.05
2022-08-05T06:19:57.150Z,17.17
2022-08-05T06:22:28.987Z,11.68
2022-08-05T06:24:56.582Z,10.80
2022-08-05T06:28:11.073Z,14.50
2022-08-05T06:30:18.129Z,11.38
2022-08-05T06:32:50.835Z,9.70
2022-08-05T06:36:03.943Z,13.13
2022-08-05T06:38:11.424Z,11.02
2022-08-05T06:40:44.623Z,10.35
2022-08-05T06:43:58.654Z,9.00
2022-08-05T06:46:06.724Z,12.88
2022-08-05T06:48:55.716Z,13.93
2022-08-05T06:51:30.150Z,12.77
2022-08-05T06:54:03.089Z,9.93
2022-08-05T06:56:33.365Z,12.23
2022-08-05T06:59:09.744Z,10.18
2022-08-05T07:01:40.736Z,10.45
2022-08-05T07:04:09.718Z,13.75
2022-08-05T07:06:37.275Z,16.65
2022-08-05T07:09:05.159Z,8.82
2022-08-05T07:11:36.790Z,10.05
2022-08-05T07:14:29.591Z,9.95
2022-08-05T07:18:01.493Z,9.60
2022-08-05T07:22:42.359Z,10.27
2022-08-05T07:25:22.561Z,9.65
2022-08-05T07:28:05.385Z,10.65
2022-08-05T07:30:38.298Z,9.35
2022-08-05T07:33:09.407Z,7.38
2022-08-05T07:36:01.813Z,7.72
2022-08-05T07:38:33.288Z,6.90
2022-08-05T07:42:09.070Z,8.63
2022-08-05T07:43:56.312Z,7.88
2022-08-05T07:46:26.662Z,7.78
2022-08-05T07:49:01.835Z,8.02
2022-08-05T07:51:36.949Z,7.40
2022-08-05T07:54:08.406Z,8.93
2022-08-05T07:57:00.182Z,7.70
2022-08-05T07:59:38.271Z,7.22
2022-08-05T08:02:16.771Z,7.65
2022-08-05T08:04:47.550Z,8.70
2022-08-05T08:07:16.489Z,8.77
2022-08-05T08:09:46.249Z,7.97
2022-08-05T08:12:37.283Z,7.13
2022-08-05T08:15:02.063Z,14.00
2022-08-05T08:17:31.138Z,8.63
2022-08-05T08:20:22.956Z,9.27
2022-08-05T08:22:55.615Z,7.47
2022-08-05T08:25:26.889Z,7.78
2022-08-05T08:28:18.773Z,8.00
2022-08-05T08:30:58.774Z,8.02
2022-08-05T08:33:27.997Z,8.30
2022-08-05T08:36:18.736Z,8.02
2022-08-05T08:38:42.770Z,8.60
2022-08-05T08:41:25.949Z,7.50
2022-08-05T08:45:19.347Z,7.13
2022-08-05T08:46:44.941Z,6.57
2022-08-05T08:50:23.111Z,8.77
2022-08-05T08:52:17.879Z,9.50
2022-08-05T08:54:45.342Z,9.00
2022-08-05T08:57:14.019Z,9.50
2022-08-05T09:02:19.118Z,8.30
2022-08-05T09:05:16.971Z,10.33
2022-08-05T09:07:40.060Z,7.38
2022-08-05T09:10:27.702Z,7.38
2022-08-05T09:13:05.078Z,7.95
2022-08-05T09:15:37.008Z,8.15
2022-08-05T09:18:08.826Z,8.75
2022-08-05T09:20:38.181Z,7.82
2022-08-05T09:23:07.823Z,7.72
2022-08-05T09:26:02.659Z,7.53
2022-08-05T09:31:43.241Z,7.60
2022-08-05T09:34:03.191Z,7.38
2022-08-05T09:36:55.158Z,9.82
2022-08-05T09:39:27.526Z,7.05
2022-08-05T09:42:07.903Z,9.63
2022-08-05T09:44:40.025Z,7.60
2022-08-05T09:47:22.169Z,7.60
2022-08-05T09:50:00.737Z,7.50
2022-08-05T09:52:34.917Z,8.53
2022-08-05T09:55:55.313Z,7.07
2022-08-05T09:57:54.673Z,7.25
2022-08-05T10:00:26.534Z,6.53
2022-08-05T10:02:54.948Z,7.07
2022-08-05T10:05:28.354Z,6.43
2022-08-05T10:08:36.917Z,5.47
2022-08-05T10:10:54.147Z,6.10
2022-08-05T10:13:47.160Z,5.57
2022-08-05T10:16:41.845Z,9.10
2022-08-05T10:19:23.797Z,7.05
2022-08-05T10:22:09.116Z,6.90
2022-08-05T10:24:43.372Z,7.05
2022-08-05T10:27:16.588Z,7.13
2022-08-05T10:30:06.892Z,6.10
2022-08-05T10:32:53.354Z,6.57
2022-08-05T10:35:20.030Z,6.40
2022-08-05T10:38:01.825Z,6.60
2022-08-05T10:40:52.120Z,6.22
2022-08-05T10:43:36.462Z,6.93
2022-08-05T10:46:07.206Z,6.95
2022-08-05T10:48:57.396Z,6.60
2022-08-05T10:51:53.233Z,6.38
2022-08-05T10:55:04.143Z,7.18
2022-08-05T10:57:32.337Z,8.57
2022-08-05T11:00:29.808Z,6.03
2022-08-05T11:03:23.529Z,5.90
2022-08-05T11:06:08.430Z,6.55
2022-08-05T11:09:32.073Z,5.90
2022-08-05T11:12:54.411Z,7.55
2022-08-05T11:15:59.434Z,5.85
2022-08-05T11:18:32.660Z,6.03
2022-08-05T11:21:11.762Z,6.47
2022-08-05T11:24:05.717Z,6.25
2022-08-05T11:26:43.156Z,5.93
2022-08-05T11:29:35.134Z,6.20
2022-08-05T11:32:30.445Z,5.97
2022-08-05T11:34:58.059Z,6.90
2022-08-05T11:38:28.578Z,6.88
2022-08-05T11:41:01.307Z,6.00
2022-08-05T11:44:05.215Z,5.55
2022-08-05T11:47:09.271Z,5.57
2022-08-05T11:49:34.088Z,7.47
2022-08-05T11:52:11.289Z,6.10
2022-08-05T11:54:40.378Z,6.05
2022-08-05T11:57:26.046Z,6.82
2022-08-05T11:59:54.868Z,6.70
2022-08-05T12:02:32.939Z,6.07
2022-08-05T12:05:07.117Z,6.20
2022-08-05T12:08:09.061Z,6.32
2022-08-05T12:10:38.424Z,6.00
2022-08-05T12:13:16.450Z,6.50
2022-08-05T12:15:49.880Z,6.10
2022-08-05T12:18:33.033Z,5.90
2022-08-05T12:21:11.498Z,6.88
2022-08-05T12:23:43.084Z,6.25
2022-08-05T12:26:10.683Z,7.60
2022-08-05T12:28:38.627Z,6.72
2022-08-05T12:31:06.043Z,6.07
2022-08-05T12:33:36.499Z,6.20
2022-08-05T12:36:08.146Z,8.10
2022-08-05T12:38:41.239Z,7.13
2022-08-05T12:41:13.967Z,6.70
2022-08-05T12:43:55.259Z,6.88
2022-08-05T12:46:29.394Z,6.53
2022-08-05T12:49:01.057Z,6.32
2022-08-05T12:52:10.672Z,6.45
2022-08-05T12:54:36.040Z,6.85
2022-08-05T12:57:09.419Z,6.10
2022-08-05T13:01:57.489Z,6.72
2022-08-05T13:02:40.027Z,6.10
2022-08-05T13:05:12.560Z,6.65
2022-08-05T13:08:00.669Z,6.18
2022-08-05T13:10:33.356Z,6.40
2022-08-05T13:13:06.339Z,6.82
2022-08-05T13:15:50.679Z,6.65
2022-08-05T13:18:20.155Z,6.50
2022-08-05T13:20:49.028Z,6.32
2022-08-05T13:23:18.305Z,8.75
2022-08-05T13:25:59.184Z,6.38
2022-08-05T13:28:27.969Z,7.25
2022-08-05T13:30:57.277Z,8.10
2022-08-05T13:34:22.895Z,6.22
2022-08-05T13:36:14.419Z,6.28
2022-08-05T13:38:43.231Z,6.10
2022-08-05T13:41:11.919Z,5.65
2022-08-05T13:43:45.131Z,6.10
2022-08-05T13:46:37.800Z,5.80
2022-08-05T13:49:11.986Z,7.68
2022-08-05T13:51:46.130Z,6.13
2022-08-05T13:54:16.419Z,5.50
2022-08-05T13:56:50.985Z,6.55
2022-08-05T13:59:24.963Z,5.95
2022-08-05T14:01:58.063Z,7.22
2022-08-05T14:05:11.462Z,7.93
2022-08-05T14:07:59.775Z,8.10
2022-08-05T14:10:30.959Z,6.25
2022-08-05T14:12:59.668Z,6.07
2022-08-05T14:16:06.971Z,5.90
2022-08-05T14:18:18.661Z,7.47
2022-08-05T14:20:54.455Z,6.18
2022-08-05T14:23:25.480Z,5.88
2022-08-05T14:25:58.115Z,6.05
2022-08-05T14:28:30.713Z,7.13
2022-08-05T14:30:59.388Z,6.10
2022-08-05T14:33:32.472Z,7.70
2022-08-05T14:36:15.551Z,8.43
2022-08-05T14:38:47.974Z,6.38
2022-08-05T14:41:17.672Z,6.53
2022-08-05T14:43:59.343Z,5.90
2022-08-05T14:46:31.510Z,6.30
2022-08-05T14:49:07.351Z,7.15
2022-08-05T14:51:42.484Z,6.85
2022-08-05T14:54:28.458Z,6.45
2022-08-05T14:56:58.176Z,5.93
2022-08-05T14:59:29.233Z,5.22
2022-08-05T15:02:02.878Z,4.90
2022-08-05T15:04:30.343Z,6.95
2022-08-05T15:06:58.218Z,6.57
2022-08-05T15:09:51.531Z,6.80
2022-08-05T15:12:26.961Z,5.93
2022-08-05T15:14:55.042Z,5.82
2022-08-05T15:17:47.439Z,5.28
2022-08-05T15:20:18.370Z,5.90
2022-08-05T15:22:52.401Z,5.50
2022-08-05T15:25:51.461Z,6.50
2022-08-05T15:30:43.832Z,5.97
2022-08-05T15:33:13.445Z,10.73
2022-08-05T15:36:03.437Z,9.98
2022-08-05T15:38:36.541Z,5.88
2022-08-05T15:41:22.649Z,7.30
2022-08-05T15:43:54.886Z,5.55
2022-08-05T15:46:24.030Z,7.00
2022-08-05T15:49:00.681Z,5.05
2022-08-05T15:52:13.080Z,6.10
2022-08-05T15:54:17.763Z,6.25
2022-08-05T15:56:45.080Z,6.53
2022-08-05T15:59:22.373Z,6.93
2022-08-05T16:01:52.730Z,5.75
2022-08-05T16:04:25.581Z,5.85
2022-08-05T16:06:55.415Z,5.55
2022-08-05T16:09:24.122Z,5.70
2022-08-05T16:11:53.745Z,5.38
2022-08-05T16:14:22.425Z,6.00
2022-08-05T16:16:50.516Z,5.50
2022-08-05T16:19:25.368Z,6.55
2022-08-05T16:22:05.980Z,5.45
2022-08-05T16:24:40.743Z,5.50
2022-08-05T16:27:18.525Z,5.47
2022-08-05T16:29:50.860Z,6.40
2022-08-05T16:32:28.709Z,6.35
2022-08-05T16:34:57.207Z,5.47
2022-08-05T16:38:16.888Z,4.97
2022-08-05T16:40:13.575Z,6.43
2022-08-05T16:42:52.749Z,6.30
2022-08-05T16:46:03.613Z,8.25
2022-08-05T16:48:07.763Z,5.65
2022-08-05T16:50:37.848Z,6.00
2022-08-05T16:53:12.259Z,8.38
2022-08-05T16:55:50.237Z,8.30
2022-08-05T16:58:19.917Z,6.53
2022-08-05T17:00:48.149Z,10.10
2022-08-05T17:03:20.023Z,7.10
2022-08-05T17:05:53.935Z,6.18
2022-08-05T17:08:36.251Z,6.40
2022-08-05T17:11:17.814Z,5.90
2022-08-05T17:13:45.953Z,6.07
2022-08-05T17:16:29.668Z,6.13
2022-08-05T17:19:00.990Z,5.93
2022-08-05T17:21:35.572Z,7.78
2022-08-05T17:24:30.375Z,6.25
2022-08-05T17:26:57.885Z,6.15
2022-08-05T17:29:33.565Z,6.50
2022-08-05T17:32:16.792Z,5.90
2022-08-05T17:34:47.707Z,9.15
2022-08-05T17:37:39.416Z,9.77
2022-08-05T17:40:12.282Z,6.95
2022-08-05T17:42:41.676Z,7.03
2022-08-05T17:45:18.038Z,7.22
2022-08-05T17:47:53.595Z,6.03
2022-08-05T17:50:28.091Z,7.32
2022-08-05T17:53:02.281Z,6.00
2022-08-05T17:55:38.255Z,8.15
2022-08-05T17:58:14.545Z,7.53
2022-08-05T18:00:47.855Z,7.95
2022-08-05T18:06:11.797Z,6.90
2022-08-05T18:08:52.468Z,7.22
2022-08-05T18:11:23.953Z,6.20
2022-08-05T18:14:01.376Z,6.60
2022-08-05T18:16:31.707Z,6.85
2022-08-05T18:18:59.016Z,9.18
2022-08-05T18:21:28.188Z,7.53
2022-08-05T18:24:14.465Z,6.85
2022-08-05T18:26:42.036Z,8.05
2022-08-05T18:29:11.275Z,7.05
2022-08-05T18:31:42.950Z,7.82
2022-08-05T18:34:12.229Z,6.95
2022-08-05T18:36:41.304Z,7.18
2022-08-05T18:39:42.070Z,7.43
2022-08-05T18:42:06.252Z,7.43
2022-08-05T18:44:55.504Z,7.95
2022-08-05T18:47:26.904Z,7.40
2022-08-05T18:50:45.236Z,7.18
2022-08-05T18:53:20.467Z,8.20
2022-08-05T18:55:51.949Z,8.88
2022-08-05T18:58:22.174Z,9.15
2022-08-05T19:00:57.167Z,8.27
2022-08-05T19:03:53.117Z,7.97
2022-08-05T19:06:21.705Z,8.05
2022-08-05T19:08:49.837Z,9.52
2022-08-05T19:11:28.060Z,7.50
2022-08-05T19:14:01.149Z,7.63
2022-08-05T19:16:46.794Z,7.05
2022-08-05T19:19:14.820Z,9.73
2022-08-05T19:21:48.360Z,7.18
2022-08-05T19:24:18.865Z,7.35
2022-08-05T19:27:03.924Z,9.80
2022-08-05T19:29:35.910Z,7.85
2022-08-05T19:32:08.602Z,8.13
2022-08-05T19:34:39.222Z,10.65
2022-08-05T19:37:07.088Z,8.15
2022-08-05T19:39:45.568Z,8.52
2022-08-05T19:42:35.522Z,12.68
2022-08-05T19:45:06.009Z,9.57
2022-08-05T19:47:34.924Z,8.43
2022-08-05T19:50:07.546Z,10.30
2022-08-05T19:52:35.875Z,9.10
2022-08-05T19:55:06.977Z,10.45
2022-08-05T19:58:14.228Z,9.32
2022-08-05T20:00:38.611Z,15.20
2022-08-05T20:03:08.548Z,9.57
2022-08-05T20:05:49.947Z,9.98
2022-08-05T20:08:18.044Z,11.13
2022-08-05T20:10:45.250Z,10.85
2022-08-05T20:15:51.796Z,13.77
2022-08-05T20:18:32.636Z,10.40
2022-08-05T20:21:04.675Z,12.07
2022-08-05T20:23:40.121Z,10.63
2022-08-05T20:26:20.798Z,14.88
2022-08-05T20:28:52.767Z,11.38
2022-08-05T20:31:28.796Z,14.10
2022-08-05T20:34:05.103Z,12.10
2022-08-05T20:36:32.712Z,15.15
2022-08-05T20:39:00.080Z,14.00
2022-08-05T20:41:43.932Z,14.23
2022-08-05T20:44:18.520Z,15.32
2022-08-05T20:46:57.381Z,11.57
2022-08-05T20:49:25.885Z,11.65
2022-08-05T20:51:54.643Z,15.73
2022-08-05T20:54:25.885Z,12.18
2022-08-05T20:57:11.132Z,13.18
2022-08-05T21:00:10.447Z,13.10
2022-08-05T21:02:29.433Z,13.48
2022-08-05T21:04:56.753Z,11.80
2022-08-05T21:07:24.676Z,11.68
2022-08-05T21:10:01.261Z,11.75
2022-08-05T21:12:28.604Z,14.65
2022-08-05T21:14:55.984Z,20.20
2022-08-05T21:17:27.115Z,18.40
2022-08-05T21:19:56.215Z,16.02
2022-08-05T21:22:26.430Z,14.43
2022-08-05T21:24:56.529Z,12.93
2022-08-05T21:27:27.510Z,11.93
2022-08-05T21:29:56.459Z,17.50
2022-08-05T21:32:28.552Z,17.27
2022-08-05T21:35:08.461Z,21.90
2022-08-05T21:37:47.320Z,18.08
2022-08-05T21:40:23.136Z,19.25
2022-08-05T21:42:52.613Z,16.08
2022-08-05T21:45:38.132Z,17.55
2022-08-05T21:48:09.624Z,15.32
2022-08-05T21:50:37.482Z,15.38
2022-08-05T21:53:16.327Z,17.27
2022-08-05T21:56:05.423Z,14.48
2022-08-05T21:58:32.304Z,16.20
2022-08-05T22:01:00.508Z,15.90
2022-08-05T22:03:51.691Z,16.77
2022-08-05T22:06:22.372Z,16.35
2022-08-05T22:08:52.496Z,13.70
2022-08-05T22:11:34.453Z,18.20
2022-08-05T22:14:20.002Z,16.33
2022-08-05T22:16:53.175Z,17.15
2022-08-05T22:20:01.116Z,17.95
2022-08-05T22:22:14.508Z,16.17
2022-08-05T22:25:01.497Z,14.70
2022-08-05T22:28:10.958Z,18.02
2022-08-05T22:33:15.741Z,18.20
2022-08-05T22:35:48.525Z,20.88
2022-08-05T22:38:19.675Z,16.55
2022-08-05T22:40:49.489Z,16.15
2022-08-05T22:43:37.244Z,16.55
2022-08-05T22:46:13.215Z,20.17
2022-08-05T22:48:42.099Z,15.00
2022-08-05T22:51:15.954Z,17.05
2022-08-05T22:53:51.872Z,17.77
2022-08-05T22:56:30.397Z,15.60
2022-08-05T22:59:00.126Z,16.88
2022-08-05T23:02:03.815Z,13.88
2022-08-05T23:04:18.984Z,12.90
2022-08-05T23:06:47.776Z,13.55
2022-08-05T23:09:27.444Z,14.50
2022-08-05T23:12:03.510Z,12.98
2022-08-05T23:14:32.135Z,14.73
2022-08-05T23:17:24.372Z,11.68
2022-08-05T23:20:02.445Z,11.85
2022-08-05T23:22:31.046Z,12.95
2022-08-05T23:24:58.515Z,10.73
2022-08-05T23:27:28.892Z,10.23
2022-08-05T23:30:10.939Z,12.15
2022-08-05T23:32:40.765Z,12.57
2022-08-05T23:35:12.701Z,10.48
2022-08-05T23:37:39.968Z,10.32
2022-08-05T23:40:09.410Z,9.85
2022-08-05T23:42:38.300Z,11.05
2022-08-05T23:45:14.125Z,12.15
2022-08-05T23:47:47.990Z,11.02
2022-08-05T23:50:19.963Z,9.15
2022-08-05T23:52:49.765Z,9.50
2022-08-05T23:55:19.325Z,8.25
2022-08-05T23:57:49.099Z,9.68
